首页
METAR-TAF:

METAR-TAF

机场 :

Space Coast Regional Airport

泰特斯维尔, 佛罗里达州, 美国

纬度: 28-31N, 经度: 080-48W, 海拔: 11米

当前天气观测

该预报发布于3小时和45分钟前的00:46 UTC
风速6节,风向南转西南
温度 24°C
湿度 94%
气压 1016 hPa
能見度: 11.3公里
散云层高于6500英尺

METAR: KTIX 050046Z 20006KT 7SM SCT065 24/23 A3001

时间: 00:31 (04:31 UTC)

预报

该预报发布于5小时和11分钟前的23:20 UTC
预报有效从05日的 00点(UTC)到 05日的 24点(UTC)
风速5节,风向
能見度: 9.7公里
多云层高于1500英尺
阴天层高于4000英尺
小阵雨
从 05日的 0100点(UTC)
风速4节,风向
能見度: 10公里
少量云层高于2000英尺
散云层高于5000英尺
多云层高于10000英尺
附近有阵雨
短暂存在
从 05日的 07点(UTC)到 05日的 11点(UTC)
散云层高于1000英尺
多云层高于3000英尺
从 05日的 1400点(UTC)
风速5节,风向
能見度: 10公里
散云层高于2500英尺
多云层高于5000英尺
阴天层高于10000英尺
附近有阵雨
从 05日的 1700点(UTC)
风速7节,风向东南
能見度: 10公里
散云层高于3000英尺
多云层高于6000英尺
附近有阵雨
短暂存在
从 05日的 17点(UTC)到 05日的 21点(UTC)
能見度: 6.4公里
多云层高于2000英尺
多云层高于5000英尺
阵雨

TAF: KTIX 042320Z 0500/0524 17005KT 6SM -SHRA BKN015 OVC040 FM050100 17004KT P6SM VCSH FEW020 SCT050 BKN100 TEMPO 0507/0511 SCT010 BKN030 FM051400 19005KT P6SM VCSH SCT025 BKN050 OVC100 FM051700 13007KT P6SM VCSH SCT030 BKN060 TEMPO 0517/0521 4SM SHRA BKN020 BKN050 AMD NOT SKED 0501/0511

超过4000个机场的气象观测和天气预报(METAR&TAF报告)。

可查询的气象台以黄色和红色小点在地图上表示。

将鼠标移到小点上方,可查看气象台名称。

然后点击查看天气观测和预报。

如需切换地图:点击带黑十字的绿色按钮放大地图;点击带横线的绿色按钮缩小地图;或者点击绿色箭头查看邻近地区的地图。


METAR-TAF: